Time;durP1;ratioP1;P1;durP2;ratioP2;P2;SDS_P1;SDS_P2;PMS_P1;PMS_P2;Temp;Humidity;BMP_temperature;BMP_pressure;BME280_temperature;BME280_humidity;BME280_pressure;Samples;Min_cycle;Max_cycle;Signal;HPM_P1;HPM_P2
2022/05/28 00:02:24;;;;;;;5.45;1.40;;;12.20;99.90;;;;;;4895002;29;20529;-78
2022/05/28 00:04:50;;;;;;;4.13;1.50;;;12.10;99.90;;;;;;4917451;29;20099;-77
2022/05/28 00:07:16;;;;;;;7.38;1.88;;;12.10;99.90;;;;;;4926463;29;20053;-78
2022/05/28 00:09:42;;;;;;;6.03;1.48;;;12.10;99.90;;;;;;4910963;29;20940;-78
2022/05/28 00:12:07;;;;;;;5.75;1.17;;;12.10;99.90;;;;;;4899553;29;20059;-78
2022/05/28 00:14:33;;;;;;;5.30;1.10;;;12.10;99.90;;;;;;4906399;29;20127;-78
2022/05/28 00:16:59;;;;;;;5.18;1.13;;;12.10;99.90;;;;;;4871995;29;20048;-78
2022/05/28 00:19:24;;;;;;;5.07;1.38;;;12.10;99.90;;;;;;4871837;29;20056;-78
2022/05/28 00:21:50;;;;;;;5.40;1.23;;;12.00;99.90;;;;;;4871960;29;20126;-78
2022/05/28 00:24:16;;;;;;;5.97;1.58;;;12.00;99.90;;;;;;4908423;29;20048;-77
2022/05/28 00:26:43;;;;;;;6.57;1.63;;;11.90;99.90;;;;;;4920459;29;20056;-78
2022/05/28 00:29:10;;;;;;;7.05;1.67;;;11.90;99.90;;;;;;4893837;29;20056;-78
2022/05/28 00:31:36;;;;;;;6.07;1.30;;;11.90;99.90;;;;;;4902627;29;20123;-78
2022/05/28 00:34:02;;;;;;;5.60;1.30;;;11.90;99.90;;;;;;4909571;29;20899;-78
2022/05/28 00:36:27;;;;;;;4.95;1.58;;;11.80;99.90;;;;;;4887683;29;20049;-79
2022/05/28 00:38:53;;;;;;;7.18;1.45;;;11.80;99.90;;;;;;4901739;29;20186;-78
2022/05/28 00:41:19;;;;;;;4.53;1.20;;;11.80;99.90;;;;;;4901524;29;20060;-78
2022/05/28 00:43:45;;;;;;;4.75;1.42;;;11.70;99.90;;;;;;4886341;29;20139;-78
2022/05/28 00:46:22;;;;;;;8.27;1.48;;;11.70;99.90;;;;;;4893794;29;20111;-79
2022/05/28 00:48:53;;;;;;;8.52;1.52;;;11.70;99.90;;;;;;4909792;29;20135;-79
2022/05/28 00:51:29;;;;;;;4.80;1.30;;;11.70;99.90;;;;;;4885928;29;20049;-79
2022/05/28 00:53:59;;;;;;;5.80;1.35;;;11.70;99.90;;;;;;4907882;29;20104;-79
2022/05/28 00:56:26;;;;;;;7.88;1.38;;;11.70;99.90;;;;;;4903581;29;20108;-78
2022/05/28 00:58:52;;;;;;;4.65;1.20;;;11.70;99.90;;;;;;4871019;29;20058;-79
2022/05/28 01:01:22;;;;;;;7.03;1.58;;;11.70;99.90;;;;;;4893712;29;20052;-78
2022/05/28 01:03:58;;;;;;;7.25;1.30;;;11.70;99.90;;;;;;4901893;29;20064;-79
2022/05/28 01:06:47;;;;;;;8.27;2.08;;;11.70;99.90;;;;;;4900827;29;20048;-79
2022/05/28 01:09:33;;;;;;;9.20;1.92;;;11.70;99.90;;;;;;4909587;29;20056;-79
2022/05/28 01:12:05;;;;;;;8.95;1.80;;;11.70;99.90;;;;;;4902374;29;20056;-79
2022/05/28 01:14:51;;;;;;;9.02;2.05;;;11.70;99.90;;;;;;4908331;29;20045;-78
2022/05/28 01:17:27;;;;;;;5.80;1.20;;;11.70;99.90;;;;;;4909506;29;20084;-79
2022/05/28 01:20:06;;;;;;;6.75;1.48;;;11.70;99.90;;;;;;4896315;29;20048;-78
2022/05/28 01:22:51;;;;;;;6.25;1.65;;;11.70;99.90;;;;;;4920668;29;20056;-78
2022/05/28 01:25:43;;;;;;;5.80;1.33;;;11.70;99.90;;;;;;4911755;29;20057;-79
2022/05/28 01:28:14;;;;;;;12.35;2.10;;;11.60;99.90;;;;;;4911200;29;20060;-79
2022/05/28 01:30:42;;;;;;;7.72;1.60;;;11.60;99.90;;;;;;4920129;29;20075;-78
2022/05/28 01:33:12;;;;;;;9.48;1.58;;;11.60;99.90;;;;;;4906255;29;20481;-78
2022/05/28 01:35:38;;;;;;;7.57;1.55;;;11.50;99.90;;;;;;4906055;29;20052;-79
2022/05/28 01:38:07;;;;;;;9.05;1.95;;;11.50;99.90;;;;;;4894747;29;20071;-78
2022/05/28 01:40:34;;;;;;;5.80;1.40;;;11.50;99.90;;;;;;4912069;29;20549;-77
2022/05/28 01:43:04;;;;;;;5.97;1.40;;;11.50;99.90;;;;;;4905641;29;20048;-78
2022/05/28 01:45:32;;;;;;;4.57;1.55;;;11.50;99.90;;;;;;4921558;29;20060;-79
2022/05/28 01:48:02;;;;;;;7.35;1.60;;;11.40;99.90;;;;;;4888855;29;20060;-79
2022/05/28 01:50:32;;;;;;;5.72;1.60;;;11.40;99.90;;;;;;4913116;29;20048;-78
2022/05/28 01:53:04;;;;;;;6.00;1.63;;;11.40;99.90;;;;;;4913326;29;20045;-79
2022/05/28 01:55:35;;;;;;;7.97;1.83;;;11.40;99.90;;;;;;4921839;29;20146;-79
2022/05/28 01:58:01;;;;;;;4.88;1.25;;;11.40;99.90;;;;;;4921565;29;20131;-78
2022/05/28 02:00:27;;;;;;;7.00;1.50;;;11.40;99.90;;;;;;4920193;29;20072;-79
2022/05/28 02:02:55;;;;;;;7.10;1.63;;;11.40;99.90;;;;;;4889019;29;20095;-79
2022/05/28 02:05:21;;;;;;;8.18;1.77;;;11.40;99.90;;;;;;4920191;29;20124;-79
2022/05/28 02:07:47;;;;;;;7.03;2.00;;;11.40;99.90;;;;;;4920202;29;20139;-78
2022/05/28 02:10:16;;;;;;;7.55;1.60;;;11.40;99.90;;;;;;4913119;29;20080;-78
2022/05/28 02:13:01;;;;;;;10.27;1.90;;;11.40;99.90;;;;;;4906482;29;20135;-78
2022/05/28 02:15:34;;;;;;;7.38;1.52;;;11.40;99.90;;;;;;4913253;29;20192;-79
2022/05/28 02:18:14;;;;;;;7.70;1.60;;;11.40;99.90;;;;;;4889744;29;20060;-79
2022/05/28 02:21:04;;;;;;;8.48;1.48;;;11.40;99.90;;;;;;4906305;29;20052;-79
2022/05/28 02:24:09;;;;;;;5.43;1.45;;;11.40;99.90;;;;;;4904362;29;20064;-79
2022/05/28 02:26:52;;;;;;;5.50;1.30;;;11.40;99.90;;;;;;4919707;29;20498;-79
2022/05/28 02:29:19;;;;;;;7.32;1.75;;;11.40;99.90;;;;;;4919680;29;20060;-79
2022/05/28 02:31:49;;;;;;;8.60;1.85;;;11.70;99.90;;;;;;4896153;29;20048;-79
2022/05/28 02:34:16;;;;;;;6.03;1.50;;;11.40;99.90;;;;;;4888621;29;20091;-79
2022/05/28 02:36:42;;;;;;;6.15;1.50;;;11.40;99.90;;;;;;4903691;29;20048;-78
2022/05/28 02:39:09;;;;;;;10.77;2.08;;;11.40;99.90;;;;;;4905063;29;20943;-79
2022/05/28 02:41:35;;;;;;;11.02;1.83;;;11.40;99.90;;;;;;4903744;29;20052;-79
2022/05/28 02:44:02;;;;;;;5.57;1.40;;;11.40;99.90;;;;;;4911810;29;20066;-79
2022/05/28 02:46:28;;;;;;;8.38;1.75;;;11.40;99.90;;;;;;4911124;29;20450;-78
2022/05/28 02:48:54;;;;;;;7.70;1.60;;;11.40;99.90;;;;;;4888985;29;20067;-78
2022/05/28 02:51:21;;;;;;;9.70;1.67;;;11.40;99.90;;;;;;4904374;29;20056;-79
2022/05/28 02:53:54;;;;;;;8.15;1.95;;;11.40;99.90;;;;;;4910850;29;20494;-79
2022/05/28 02:56:21;;;;;;;8.77;2.22;;;11.40;99.90;;;;;;4896104;29;20163;-79
2022/05/28 02:58:47;;;;;;;9.60;2.00;;;11.40;99.90;;;;;;4911752;29;20059;-78
2022/05/28 03:01:20;;;;;;;8.95;2.22;;;11.40;99.90;;;;;;4887548;29;20131;-78
2022/05/28 03:03:46;;;;;;;7.18;1.67;;;11.40;99.90;;;;;;4903863;29;20119;-79
2022/05/28 03:06:11;;;;;;;7.75;1.88;;;11.40;99.90;;;;;;4872658;29;20051;-79
2022/05/28 03:08:37;;;;;;;5.25;1.67;;;11.40;99.90;;;;;;4904311;29;20768;-79
2022/05/28 03:11:03;;;;;;;8.50;1.83;;;11.40;99.90;;;;;;4872221;29;20083;-78
2022/05/28 03:13:29;;;;;;;8.10;1.90;;;11.30;99.90;;;;;;4903921;29;20076;-78
2022/05/28 03:15:54;;;;;;;12.77;1.80;;;11.30;99.90;;;;;;4903886;29;20374;-79
2022/05/28 03:18:20;;;;;;;6.45;1.73;;;11.30;99.90;;;;;;4919478;29;20044;-79
2022/05/28 03:20:45;;;;;;;7.95;1.65;;;11.30;99.90;;;;;;4918804;29;20118;-79
2022/05/28 03:23:11;;;;;;;7.05;1.77;;;11.30;99.90;;;;;;4895430;29;20138;-79
2022/05/28 03:25:37;;;;;;;5.50;1.52;;;11.30;99.90;;;;;;4918436;29;20040;-78
2022/05/28 03:28:03;;;;;;;10.63;2.42;;;11.30;99.90;;;;;;4902588;29;20056;-78
2022/05/28 03:30:28;;;;;;;8.65;1.80;;;11.30;99.90;;;;;;4871390;29;20050;-79
2022/05/28 03:32:54;;;;;;;10.30;2.20;;;11.20;99.90;;;;;;4919849;29;20048;-78
2022/05/28 03:35:20;;;;;;;6.05;1.60;;;11.20;99.90;;;;;;4903079;29;20052;-78
2022/05/28 03:37:46;;;;;;;7.45;2.13;;;11.30;99.90;;;;;;4904959;29;20047;-78
2022/05/28 03:40:12;;;;;;;10.30;2.40;;;11.30;99.90;;;;;;4917582;29;20187;-78
2022/05/28 03:42:37;;;;;;;7.90;1.90;;;11.30;99.90;;;;;;4912451;29;20107;-78
2022/05/28 03:45:03;;;;;;;7.32;2.10;;;11.30;99.90;;;;;;4928902;29;20056;-78
2022/05/28 03:47:30;;;;;;;9.02;1.63;;;11.30;99.90;;;;;;4919298;29;20062;-78
2022/05/28 03:49:56;;;;;;;8.70;1.60;;;11.20;99.90;;;;;;4920061;29;20109;-79
2022/05/28 03:52:22;;;;;;;5.93;1.77;;;11.30;99.90;;;;;;4904361;29;20048;-79
2022/05/28 03:54:48;;;;;;;8.75;2.20;;;11.30;99.90;;;;;;4887822;29;20048;-78
2022/05/28 03:57:26;;;;;;;7.28;1.83;;;11.30;99.90;;;;;;4910614;29;20046;-79
2022/05/28 03:59:53;;;;;;;8.27;2.00;;;11.10;99.90;;;;;;4918504;29;20048;-79
2022/05/28 04:02:19;;;;;;;5.05;1.38;;;11.30;99.90;;;;;;4886800;29;20054;-78
2022/05/28 04:04:45;;;;;;;7.97;1.80;;;11.30;99.90;;;;;;4885116;29;20064;-78
2022/05/28 04:07:11;;;;;;;9.50;2.20;;;11.30;99.90;;;;;;4911130;29;20047;-78
2022/05/28 04:09:37;;;;;;;13.88;1.92;;;11.30;99.90;;;;;;4889413;29;20063;-78
2022/05/28 04:12:04;;;;;;;11.00;2.40;;;11.30;99.90;;;;;;4904089;29;20135;-79
2022/05/28 04:14:29;;;;;;;5.30;1.40;;;11.40;99.90;;;;;;4901524;29;20052;-78
2022/05/28 04:16:55;;;;;;;9.95;1.83;;;11.30;99.90;;;;;;4894919;29;20059;-79
2022/05/28 04:19:21;;;;;;;8.57;1.88;;;11.30;99.90;;;;;;4871274;29;20570;-79
2022/05/28 04:21:47;;;;;;;8.30;1.60;;;11.40;99.90;;;;;;4917846;29;20094;-78
2022/05/28 04:24:13;;;;;;;11.95;1.83;;;11.30;99.90;;;;;;4910096;29;20044;-79
2022/05/28 04:26:38;;;;;;;7.45;1.80;;;11.40;99.90;;;;;;4870460;29;20463;-79
2022/05/28 04:29:05;;;;;;;8.20;1.98;;;11.30;99.90;;;;;;4892569;29;20104;-79
2022/05/28 04:31:31;;;;;;;11.27;1.80;;;11.30;99.90;;;;;;4894476;29;20430;-79
2022/05/28 04:33:57;;;;;;;12.30;2.05;;;11.40;99.90;;;;;;4917534;29;20406;-79
2022/05/28 04:36:23;;;;;;;8.52;2.20;;;11.40;99.90;;;;;;4887238;29;20052;-78
2022/05/28 04:38:49;;;;;;;8.95;1.80;;;11.50;99.90;;;;;;4909471;29;20129;-77
2022/05/28 04:41:15;;;;;;;10.13;2.35;;;11.50;99.90;;;;;;4908931;29;20107;-79
2022/05/28 04:43:41;;;;;;;7.97;1.95;;;11.50;99.90;;;;;;4908499;29;20129;-78
2022/05/28 04:46:06;;;;;;;7.03;1.90;;;11.40;99.90;;;;;;4871752;29;20056;-79
2022/05/28 04:48:33;;;;;;;7.20;1.60;;;11.50;99.90;;;;;;4918409;29;20052;-79
2022/05/28 04:50:59;;;;;;;7.07;1.77;;;11.50;99.90;;;;;;4918571;29;20051;-79
2022/05/28 04:53:25;;;;;;;7.07;2.15;;;11.50;99.90;;;;;;4918632;29;20044;-78
2022/05/28 04:55:51;;;;;;;7.60;1.92;;;11.50;99.90;;;;;;4905403;29;20052;-79
2022/05/28 04:58:17;;;;;;;9.30;1.98;;;11.50;99.90;;;;;;4907830;29;20052;-79
2022/05/28 05:00:45;;;;;;;7.82;1.65;;;11.50;99.90;;;;;;4859060;29;20103;-78
2022/05/28 05:03:11;;;;;;;6.47;1.98;;;11.60;99.90;;;;;;4906649;29;20051;-79
2022/05/28 05:05:37;;;;;;;10.50;1.95;;;11.60;99.90;;;;;;4904923;29;20976;-77
2022/05/28 05:08:03;;;;;;;8.82;1.80;;;11.60;99.90;;;;;;4923621;29;20056;-79
2022/05/28 05:10:29;;;;;;;8.35;1.65;;;11.70;99.90;;;;;;4912086;29;20088;-79
2022/05/28 05:12:54;;;;;;;8.75;2.50;;;11.70;99.90;;;;;;4923259;29;20090;-78
2022/05/28 05:15:21;;;;;;;6.35;2.00;;;11.70;99.90;;;;;;4882715;29;20052;-79
2022/05/28 05:17:47;;;;;;;5.95;1.65;;;11.70;99.90;;;;;;4912466;29;20526;-79
2022/05/28 05:20:14;;;;;;;10.10;2.00;;;11.70;99.90;;;;;;4923614;29;20048;-79
2022/05/28 05:22:40;;;;;;;9.38;2.15;;;11.70;99.90;;;;;;4897428;29;20521;-80
2022/05/28 05:25:07;;;;;;;9.20;2.15;;;11.60;99.90;;;;;;4912178;29;20051;-79
2022/05/28 05:27:33;;;;;;;10.20;2.03;;;11.60;99.90;;;;;;4874181;29;20048;-80
2022/05/28 05:29:59;;;;;;;9.65;1.90;;;11.60;99.90;;;;;;4891127;29;20546;-79
2022/05/28 05:32:26;;;;;;;6.95;1.80;;;11.60;99.90;;;;;;4903666;29;20052;-79
2022/05/28 05:34:52;;;;;;;10.02;2.10;;;11.70;99.90;;;;;;4875776;29;20123;-84
2022/05/28 05:37:18;;;;;;;9.45;1.90;;;11.80;99.90;;;;;;4891306;29;20402;-79
2022/05/28 05:39:44;;;;;;;11.93;2.42;;;11.90;99.90;;;;;;4894621;29;20056;-80
2022/05/28 05:42:11;;;;;;;11.18;2.28;;;12.00;99.90;;;;;;4908161;29;20419;-79
2022/05/28 05:44:38;;;;;;;10.00;2.33;;;12.10;99.90;;;;;;4897752;29;20752;-78
2022/05/28 05:47:04;;;;;;;8.82;2.28;;;12.20;99.90;;;;;;4921233;29;20055;-78
2022/05/28 05:49:30;;;;;;;8.30;2.10;;;12.20;99.90;;;;;;4913652;29;20099;-80
2022/05/28 05:51:56;;;;;;;8.02;1.95;;;12.20;99.90;;;;;;4913235;29;20048;-78
2022/05/28 05:54:25;;;;;;;6.55;1.80;;;12.20;99.90;;;;;;4920542;29;20375;-78
2022/05/28 05:56:54;;;;;;;7.82;1.80;;;12.10;99.90;;;;;;4904571;29;20048;-79
2022/05/28 05:59:20;;;;;;;12.90;2.55;;;12.20;99.90;;;;;;4919519;29;20052;-78
2022/05/28 06:01:46;;;;;;;8.45;2.00;;;12.30;99.90;;;;;;4910760;29;20058;-79
2022/05/28 06:04:12;;;;;;;6.53;1.90;;;12.30;99.90;;;;;;4920370;29;20044;-78
2022/05/28 06:06:38;;;;;;;11.23;2.33;;;12.30;99.90;;;;;;4904142;29;20059;-77
2022/05/28 06:09:05;;;;;;;8.02;1.90;;;12.20;99.90;;;;;;4904926;29;20589;-79
2022/05/28 06:11:31;;;;;;;6.70;1.77;;;12.30;99.90;;;;;;4910672;29;20606;-78
2022/05/28 06:13:57;;;;;;;8.85;2.40;;;12.30;99.90;;;;;;4904518;29;20040;-78
2022/05/28 06:16:22;;;;;;;11.75;2.15;;;12.30;99.90;;;;;;4905104;29;20048;-79
2022/05/28 06:18:48;;;;;;;8.50;2.15;;;12.20;99.90;;;;;;4890063;29;20553;-78
2022/05/28 06:21:14;;;;;;;7.55;2.08;;;12.20;99.90;;;;;;4919837;29;20068;-78
2022/05/28 06:23:41;;;;;;;9.45;2.22;;;12.20;99.90;;;;;;4904890;29;20056;-76
2022/05/28 06:26:07;;;;;;;12.43;2.00;;;12.20;99.90;;;;;;4905204;29;20176;-78
2022/05/28 06:28:33;;;;;;;10.65;2.30;;;12.40;99.90;;;;;;4920066;29;20591;-79
2022/05/28 06:31:05;;;;;;;9.15;2.03;;;12.50;99.90;;;;;;4889156;29;20132;-78
2022/05/28 06:33:31;;;;;;;10.15;2.45;;;12.60;99.90;;;;;;4905083;29;20475;-79
2022/05/28 06:35:58;;;;;;;9.80;2.08;;;12.80;99.90;;;;;;4894402;29;20079;-79
2022/05/28 06:38:24;;;;;;;12.80;2.38;;;12.80;99.90;;;;;;4888987;29;20055;-79
2022/05/28 06:40:51;;;;;;;10.55;1.95;;;12.80;99.90;;;;;;4911339;29;20052;-79
2022/05/28 06:43:17;;;;;;;8.35;2.15;;;12.80;99.90;;;;;;4905379;29;20062;-79
2022/05/28 06:45:43;;;;;;;8.88;2.22;;;12.80;99.90;;;;;;4878144;29;20089;-80
2022/05/28 06:48:09;;;;;;;11.50;2.45;;;12.80;99.90;;;;;;4889035;29;20522;-79
2022/05/28 06:53:20;;;;;;;7.93;2.20;;;13.50;99.90;;;;;;4896703;29;20359;-80
2022/05/28 06:55:46;;;;;;;10.65;2.53;;;13.10;99.90;;;;;;4923237;29;20047;-79
2022/05/28 06:58:12;;;;;;;7.03;1.98;;;13.30;99.90;;;;;;4927303;29;20509;-79
2022/05/28 07:00:38;;;;;;;10.50;2.03;;;13.50;99.90;;;;;;4908164;29;20044;-81
2022/05/28 07:03:04;;;;;;;10.70;2.47;;;13.60;99.90;;;;;;4892375;29;20048;-79
2022/05/28 07:05:30;;;;;;;8.52;2.38;;;13.70;99.90;;;;;;4895061;29;20052;-79
2022/05/28 07:07:56;;;;;;;10.20;2.55;;;13.80;99.90;;;;;;4872109;29;20063;-78
2022/05/28 07:10:22;;;;;;;8.98;2.05;;;13.70;99.90;;;;;;4871464;29;20044;-80
2022/05/28 07:12:48;;;;;;;10.52;2.22;;;13.70;99.90;;;;;;4905846;29;20782;-81
2022/05/28 07:15:14;;;;;;;9.85;1.90;;;13.70;99.90;;;;;;4894061;29;20121;-81
2022/05/28 07:17:41;;;;;;;8.52;2.20;;;13.60;99.90;;;;;;4912305;29;20455;-79
2022/05/28 07:20:08;;;;;;;6.88;1.77;;;13.60;99.90;;;;;;4909735;29;20401;-82
2022/05/28 07:22:35;;;;;;;8.10;2.10;;;13.50;99.90;;;;;;4906118;29;20067;-78
2022/05/28 07:25:01;;;;;;;10.45;2.17;;;13.40;99.90;;;;;;4879228;29;20089;-79
2022/05/28 07:27:27;;;;;;;9.70;2.20;;;13.40;99.90;;;;;;4910545;29;20048;-80
2022/05/28 07:29:57;;;;;;;8.75;2.03;;;13.40;99.90;;;;;;4911355;29;20463;-80
2022/05/28 07:32:25;;;;;;;9.30;2.00;;;13.30;99.90;;;;;;4921742;29;20079;-79
2022/05/28 07:34:51;;;;;;;5.97;1.60;;;13.50;99.90;;;;;;4903502;29;20052;-79
2022/05/28 07:37:17;;;;;;;9.35;2.42;;;13.70;99.90;;;;;;4903126;29;20060;-79
2022/05/28 07:39:43;;;;;;;8.65;2.10;;;13.80;99.90;;;;;;4879214;29;20056;-80
2022/05/28 07:42:09;;;;;;;8.38;1.85;;;13.70;99.90;;;;;;4910233;29;20057;-82
2022/05/28 07:44:35;;;;;;;10.13;2.20;;;13.80;99.90;;;;;;4871212;29;20087;-79
2022/05/28 07:47:08;;;;;;;8.15;1.92;;;14.00;99.90;;;;;;4903220;29;20054;-79
2022/05/28 07:49:38;;;;;;;11.43;2.22;;;14.20;99.90;;;;;;4919969;29;20052;-78
2022/05/28 07:52:04;;;;;;;11.73;2.20;;;14.20;99.90;;;;;;4918061;29;20097;-79
2022/05/28 07:54:31;;;;;;;10.60;2.47;;;14.10;99.90;;;;;;4918297;29;20131;-79
2022/05/28 07:56:57;;;;;;;10.43;2.40;;;14.10;99.90;;;;;;4904028;29;20040;-79
2022/05/28 07:59:23;;;;;;;8.98;2.47;;;14.30;99.90;;;;;;4911263;29;20048;-80
2022/05/28 08:01:49;;;;;;;10.18;2.63;;;14.70;99.90;;;;;;4894248;29;20119;-79
2022/05/28 08:04:15;;;;;;;8.00;2.03;;;14.80;99.90;;;;;;4919288;29;20130;-78
2022/05/28 08:06:42;;;;;;;8.80;2.13;;;14.80;99.90;;;;;;4902343;29;20090;-80
2022/05/28 08:09:09;;;;;;;9.30;2.22;;;14.60;99.90;;;;;;4886551;29;20044;-85
2022/05/28 08:11:35;;;;;;;8.48;2.00;;;14.70;99.90;;;;;;4904069;29;20119;-83
2022/05/28 08:14:01;;;;;;;6.03;1.85;;;14.90;99.90;;;;;;4918967;29;20123;-79
2022/05/28 08:16:27;;;;;;;11.70;2.10;;;15.30;99.90;;;;;;4908588;29;20082;-79
2022/05/28 08:18:53;;;;;;;6.55;1.80;;;15.00;99.90;;;;;;4896206;29;20051;-78
2022/05/28 08:24:04;;;;;;;8.55;2.10;;;15.30;99.90;;;;;;4902770;29;20052;-79
2022/05/28 08:26:30;;;;;;;6.40;1.45;;;15.70;99.90;;;;;;4874119;29;20490;-79
2022/05/28 08:28:56;;;;;;;6.18;1.95;;;15.80;99.90;;;;;;4909754;29;20047;-79
2022/05/28 08:31:24;;;;;;;7.45;1.80;;;16.10;99.90;;;;;;4925235;29;20487;-79
2022/05/28 08:33:51;;;;;;;10.18;2.95;;;16.40;99.90;;;;;;4880586;29;20398;-79
2022/05/28 08:36:17;;;;;;;7.43;2.50;;;16.60;99.90;;;;;;4914537;29;20510;-79
2022/05/28 08:38:43;;;;;;;7.82;2.28;;;16.60;99.90;;;;;;4891268;29;20052;-79
2022/05/28 08:41:48;;;;;;;8.27;2.05;;;16.70;99.90;;;;;;4912387;29;20041;-79
2022/05/28 08:44:20;;;;;;;7.80;1.95;;;16.80;99.90;;;;;;4912245;29;20418;-80
2022/05/28 08:46:55;;;;;;;10.60;2.45;;;16.70;99.90;;;;;;4897468;29;20056;-80
2022/05/28 08:49:27;;;;;;;10.15;2.00;;;16.20;99.90;;;;;;4906573;29;20126;-79
2022/05/28 08:52:11;;;;;;;8.80;2.17;;;16.10;99.90;;;;;;4906528;29;20127;-79
2022/05/28 08:55:00;;;;;;;8.80;2.25;;;16.00;99.90;;;;;;4890774;29;20048;-79
2022/05/28 08:57:58;;;;;;;8.00;1.95;;;15.80;99.90;;;;;;4907123;29;20953;-78
2022/05/28 09:00:45;;;;;;;11.07;2.67;;;15.50;99.90;;;;;;4923109;29;20496;-78
2022/05/28 09:03:33;;;;;;;10.02;2.17;;;15.30;99.90;;;;;;4913598;29;20060;-78
2022/05/28 09:06:02;;;;;;;7.72;2.17;;;15.20;99.90;;;;;;4916739;29;20048;-79
2022/05/28 09:08:46;;;;;;;7.10;2.28;;;15.10;99.90;;;;;;4919150;29;20491;-78
2022/05/28 09:11:17;;;;;;;7.40;2.13;;;15.40;99.90;;;;;;4912903;29;20045;-78
2022/05/28 09:13:53;;;;;;;9.20;2.13;;;15.50;99.90;;;;;;4913065;29;20406;-78
2022/05/28 09:16:30;;;;;;;7.07;2.08;;;15.40;99.90;;;;;;4917227;29;20803;-78
2022/05/28 09:19:00;;;;;;;5.30;1.70;;;15.50;99.90;;;;;;4898429;29;20087;-79
2022/05/28 09:21:26;;;;;;;8.25;1.80;;;15.80;99.90;;;;;;4923267;29;20048;-79
2022/05/28 09:24:03;;;;;;;7.45;1.60;;;15.90;99.90;;;;;;4905762;29;20066;-78
2022/05/28 09:26:50;;;;;;;10.88;2.13;;;15.90;99.90;;;;;;4898330;29;20050;-79
2022/05/28 09:30:03;;;;;;;11.30;2.53;;;16.10;99.90;;;;;;4906502;29;20469;-79
2022/05/28 09:32:28;;;;;;;8.85;2.22;;;16.40;99.90;;;;;;4888927;29;20512;-79
2022/05/28 09:35:09;;;;;;;8.68;1.90;;;16.90;99.90;;;;;;4913220;29;20048;-78
2022/05/28 09:38:01;;;;;;;8.48;2.17;;;17.00;99.90;;;;;;4905941;29;20088;-77
2022/05/28 09:40:48;;;;;;;7.80;1.77;;;17.10;99.90;;;;;;4920188;29;20123;-77
2022/05/28 09:43:38;;;;;;;8.90;2.00;;;17.20;99.90;;;;;;4921749;29;20048;-79
2022/05/28 09:46:20;;;;;;;7.82;2.00;;;17.30;99.90;;;;;;4921654;29;20083;-78
2022/05/28 09:48:58;;;;;;;7.40;2.25;;;17.10;99.90;;;;;;4922648;29;20068;-78
2022/05/28 09:51:26;;;;;;;6.45;1.92;;;17.20;99.90;;;;;;4889729;29;20455;-78
2022/05/28 09:54:27;;;;;;;9.45;1.92;;;16.80;99.90;;;;;;4896124;29;20056;-79
2022/05/28 09:56:54;;;;;;;7.15;2.00;;;16.90;99.90;;;;;;4912979;29;20045;-79
2022/05/28 09:59:28;;;;;;;8.18;1.50;;;16.80;99.90;;;;;;4910000;29;20056;-78
2022/05/28 10:02:27;;;;;;;7.45;1.88;;;16.60;99.90;;;;;;4920636;29;20052;-78
2022/05/28 10:05:16;;;;;;;9.70;2.00;;;16.40;99.90;;;;;;4922502;29;20063;-78
2022/05/28 10:07:53;;;;;;;8.30;1.80;;;16.70;99.90;;;;;;4905174;29;20048;-80
2022/05/28 10:10:22;;;;;;;9.27;1.95;;;16.50;99.90;;;;;;4904877;29;20055;-79
2022/05/28 10:12:48;;;;;;;8.18;1.95;;;16.70;99.90;;;;;;4911994;29;20079;-80
2022/05/28 10:15:18;;;;;;;10.45;1.95;;;16.70;99.90;;;;;;4919407;29;20068;-80
2022/05/28 10:17:57;;;;;;;11.02;1.73;;;16.80;99.90;;;;;;4920366;29;20051;-79
2022/05/28 10:20:23;;;;;;;9.70;2.08;;;16.70;99.90;;;;;;4904355;29;20391;-80
2022/05/28 10:22:52;;;;;;;8.68;1.90;;;16.40;99.90;;;;;;4891382;29;20063;-79
2022/05/28 10:25:33;;;;;;;10.40;2.03;;;16.20;99.90;;;;;;4911436;29;20044;-78
2022/05/28 10:27:59;;;;;;;6.50;1.80;;;16.20;99.90;;;;;;4918529;29;20049;-78
2022/05/28 10:30:44;;;;;;;7.18;1.88;;;16.40;99.90;;;;;;4905757;29;20071;-80
2022/05/28 10:33:18;;;;;;;4.70;1.60;;;17.00;99.90;;;;;;4897053;29;20056;-78
2022/05/28 10:35:46;;;;;;;8.73;2.28;;;17.40;99.90;;;;;;4905634;29;20052;-79
2022/05/28 10:38:12;;;;;;;5.80;1.40;;;17.90;99.90;;;;;;4895463;29;20584;-79
2022/05/28 10:40:47;;;;;;;7.28;1.60;;;18.30;99.90;;;;;;4912034;29;20099;-79
2022/05/28 10:43:36;;;;;;;6.32;1.70;;;18.40;99.90;;;;;;4894956;29;20410;-78
2022/05/28 10:46:28;;;;;;;4.43;1.55;;;18.20;99.70;;;;;;4906175;29;20052;-78
2022/05/28 10:49:08;;;;;;;6.05;1.73;;;17.80;99.40;;;;;;4920897;29;20072;-78
2022/05/28 10:51:52;;;;;;;6.30;1.60;;;17.80;99.40;;;;;;4903981;29;20076;-78
2022/05/28 10:54:35;;;;;;;6.53;1.73;;;18.20;99.90;;;;;;4903037;29;20127;-77
2022/05/28 10:57:22;;;;;;;3.85;1.35;;;18.60;99.30;;;;;;4918717;29;20103;-78
2022/05/28 11:00:31;;;;;;;10.27;1.98;;;18.90;99.40;;;;;;4905478;29;20040;-78
2022/05/28 11:03:14;;;;;;;5.65;1.52;;;19.40;98.70;;;;;;4906879;29;20097;-83
2022/05/28 11:05:46;;;;;;;7.70;1.80;;;19.50;98.50;;;;;;4906329;29;20051;-81
2022/05/28 11:08:31;;;;;;;6.32;1.63;;;19.70;98.10;;;;;;4887477;29;20055;-83
2022/05/28 11:11:19;;;;;;;6.33;1.50;;;19.80;97.10;;;;;;4910244;29;20100;-83
2022/05/28 11:14:22;;;;;;;7.40;1.80;;;19.60;97.20;;;;;;4910025;29;20308;-81
2022/05/28 11:17:09;;;;;;;8.07;1.50;;;18.90;96.00;;;;;;4903110;29;20049;-79
2022/05/28 11:19:53;;;;;;;9.00;1.70;;;18.30;97.00;;;;;;4920076;29;20051;-77
2022/05/28 11:22:19;;;;;;;7.03;1.45;;;17.80;97.50;;;;;;4920728;29;20134;-78
2022/05/28 11:24:50;;;;;;;7.10;2.17;;;17.70;98.90;;;;;;4908958;29;20165;-77
2022/05/28 11:27:34;;;;;;;6.20;1.73;;;17.80;99.30;;;;;;4919348;29;20050;-77
2022/05/28 11:30:13;;;;;;;7.30;1.75;;;17.70;99.10;;;;;;4905250;29;20136;-79
2022/05/28 11:32:52;;;;;;;7.40;1.80;;;17.70;99.10;;;;;;4910536;29;20143;-78
2022/05/28 11:35:33;;;;;;;7.45;2.03;;;17.70;99.40;;;;;;4894443;29;20060;-79
2022/05/28 11:38:08;;;;;;;7.22;1.65;;;17.80;99.60;;;;;;4910175;29;20057;-80
2022/05/28 11:40:52;;;;;;;6.90;1.53;;;17.90;99.60;;;;;;4903232;29;20468;-78
2022/05/28 11:44:08;;;;;;;6.63;1.75;;;18.20;98.90;;;;;;4901458;29;20052;-78
2022/05/28 11:46:45;;;;;;;6.45;1.95;;;18.30;98.00;;;;;;4893955;29;20078;-78
2022/05/28 11:52:22;;;;;;;6.40;1.50;;;18.30;97.50;;;;;;4908625;29;20647;-77
2022/05/28 11:55:04;;;;;;;5.43;1.63;;;18.80;97.90;;;;;;4915020;29;20052;-77
2022/05/28 11:57:52;;;;;;;7.97;2.50;;;19.20;97.20;;;;;;4909732;29;20536;-78
2022/05/28 12:00:19;;;;;;;5.25;1.65;;;19.70;97.00;;;;;;4906016;29;20087;-79
2022/05/28 12:02:54;;;;;;;8.70;3.15;;;19.80;95.90;;;;;;4921136;29;20048;-82
2022/05/28 12:05:24;;;;;;;6.17;2.03;;;19.90;94.90;;;;;;4892496;29;20060;-83
2022/05/28 12:07:57;;;;;;;11.43;6.95;;;19.90;94.00;;;;;;4894395;29;20565;-83
2022/05/28 12:10:38;;;;;;;10.60;3.60;;;20.10;93.30;;;;;;4908485;29;20698;-83
2022/05/28 12:13:05;;;;;;;6.63;1.63;;;20.20;92.10;;;;;;4921315;29;20151;-84
2022/05/28 12:15:34;;;;;;;3.72;1.20;;;20.30;93.00;;;;;;4905562;29;20044;-81
2022/05/28 12:18:05;;;;;;;5.20;1.25;;;20.40;92.10;;;;;;4894435;29;20052;-83
2022/05/28 12:20:36;;;;;;;5.25;1.80;;;20.30;92.20;;;;;;4907723;29;20499;-84
2022/05/28 12:23:05;;;;;;;4.07;1.40;;;20.20;92.30;;;;;;4921124;29;20079;-83
2022/05/28 12:25:33;;;;;;;4.95;1.73;;;19.60;93.20;;;;;;4909680;29;20192;-84
2022/05/28 12:28:08;;;;;;;4.95;1.60;;;19.50;93.20;;;;;;4905580;29;20052;-81
2022/05/28 12:30:39;;;;;;;6.70;1.50;;;19.70;93.80;;;;;;4919910;29;20047;-83
2022/05/28 12:33:17;;;;;;;12.75;7.32;;;19.40;93.70;;;;;;4908808;29;20484;-86
2022/05/28 12:35:49;;;;;;;8.85;3.58;;;19.20;94.30;;;;;;4903897;29;20048;-85
2022/05/28 12:38:38;;;;;;;6.63;2.25;;;19.50;94.60;;;;;;4912850;29;20048;-84
2022/05/28 12:41:04;;;;;;;6.15;1.55;;;19.60;94.40;;;;;;4904886;29;20052;-80
2022/05/28 12:43:38;;;;;;;5.72;2.17;;;20.10;94.50;;;;;;4903144;29;20188;-80
2022/05/28 12:46:17;;;;;;;6.93;1.90;;;20.00;93.80;;;;;;4910219;29;20053;-79
2022/05/28 12:48:43;;;;;;;5.45;1.85;;;19.50;94.70;;;;;;4887638;29;20060;-79
2022/05/28 12:51:18;;;;;;;8.05;1.80;;;19.00;95.70;;;;;;4885822;29;20056;-79
2022/05/28 12:53:59;;;;;;;6.38;1.55;;;18.90;96.40;;;;;;4916927;29;20052;-79
2022/05/28 12:56:28;;;;;;;6.05;1.75;;;18.70;96.00;;;;;;4917977;29;20052;-79
2022/05/28 12:59:07;;;;;;;6.78;1.65;;;18.50;96.00;;;;;;4903751;29;20099;-80
2022/05/28 13:01:36;;;;;;;7.25;1.70;;;18.70;96.40;;;;;;4910358;29;20124;-79
2022/05/28 13:04:10;;;;;;;6.05;1.65;;;19.00;95.50;;;;;;4919043;29;20064;-79
2022/05/28 13:06:51;;;;;;;5.60;1.50;;;19.40;95.20;;;;;;4905191;29;20048;-78
2022/05/28 13:09:24;;;;;;;5.75;1.60;;;19.10;94.60;;;;;;4910636;29;20514;-78
2022/05/28 13:12:12;;;;;;;4.97;1.38;;;19.30;94.30;;;;;;4890146;29;20139;-78
2022/05/28 13:15:20;;;;;;;5.55;1.30;;;19.40;94.10;;;;;;4889827;29;20059;-78
2022/05/28 13:18:04;;;;;;;4.03;1.45;;;19.50;94.50;;;;;;4902532;29;20135;-79